createdAt,value
2023-02-05T00:00:15.358Z,-1.80
2023-02-05T00:05:19.513Z,-1.90
2023-02-05T00:10:22.269Z,-2.20
2023-02-05T00:15:25.027Z,-2.60
2023-02-05T00:20:29.533Z,-2.80
2023-02-05T00:25:32.645Z,-3.00
2023-02-05T00:30:35.686Z,-3.00
2023-02-05T00:35:39.768Z,-3.20
2023-02-05T00:40:42.523Z,-3.30
2023-02-05T00:45:45.290Z,-3.40
2023-02-05T00:50:50.720Z,-3.40
2023-02-05T00:55:53.548Z,-3.50
2023-02-05T01:00:58.936Z,-3.60
2023-02-05T01:06:03.240Z,-3.70
2023-02-05T01:11:10.187Z,-3.70
2023-02-05T01:16:12.946Z,-3.70
2023-02-05T01:21:16.992Z,-3.70
2023-02-05T01:26:19.827Z,-3.70
2023-02-05T01:31:23.578Z,-3.80
2023-02-05T01:36:27.689Z,-3.90
2023-02-05T01:41:30.450Z,-3.90
2023-02-05T01:46:33.303Z,-4.00
2023-02-05T01:51:39.043Z,-3.90
2023-02-05T01:56:46.117Z,-3.80
2023-02-05T02:01:49.178Z,-3.70
2023-02-05T02:06:53.251Z,-3.60
2023-02-05T02:11:57.398Z,-3.50
2023-02-05T02:17:02.889Z,-3.60
2023-02-05T02:22:23.971Z,-3.80
2023-02-05T02:27:41.897Z,-3.90
2023-02-05T02:32:53.143Z,-4.10
2023-02-05T02:38:02.313Z,-4.20
2023-02-05T02:43:11.147Z,-4.20
2023-02-05T02:48:16.044Z,-4.10
2023-02-05T02:53:24.386Z,-4.10
2023-02-05T02:58:33.811Z,-4.00
2023-02-05T03:03:41.545Z,-4.10
2023-02-05T03:08:51.499Z,-4.20
2023-02-05T03:13:56.563Z,-4.30
2023-02-05T03:18:59.819Z,-4.20
2023-02-05T03:24:02.491Z,-4.20
2023-02-05T03:29:09.572Z,-4.20
2023-02-05T03:34:26.896Z,-4.40
2023-02-05T03:39:41.674Z,-4.30
2023-02-05T03:45:18.761Z,-4.10
2023-02-05T03:50:27.727Z,-4.00
2023-02-05T03:55:35.072Z,-4.10
2023-02-05T04:00:40.712Z,-4.20
2023-02-05T04:05:43.578Z,-4.50
2023-02-05T04:10:46.248Z,-4.60
2023-02-05T04:15:53.216Z,-4.50
2023-02-05T04:20:55.901Z,-4.40
2023-02-05T04:25:58.648Z,-4.40
2023-02-05T04:31:02.822Z,-4.60
2023-02-05T04:36:06.517Z,-4.70
2023-02-05T04:41:09.247Z,-4.80
2023-02-05T04:46:13.486Z,-5.00
2023-02-05T04:51:17.222Z,-5.00
2023-02-05T04:56:19.939Z,-4.40
2023-02-05T05:01:24.750Z,-4.40
2023-02-05T05:06:27.475Z,-4.50
2023-02-05T05:11:30.143Z,-4.60
2023-02-05T05:16:34.224Z,-4.70
2023-02-05T05:21:37.070Z,-4.70
2023-02-05T05:26:43.764Z,-4.40
2023-02-05T05:31:47.855Z,-4.20
2023-02-05T05:36:50.534Z,-4.10
2023-02-05T05:42:10.700Z,-3.90
2023-02-05T05:47:14.728Z,-3.80
2023-02-05T05:52:17.487Z,-3.70
2023-02-05T05:57:20.979Z,-3.70
2023-02-05T06:02:25.122Z,-3.80
2023-02-05T06:07:28.523Z,-3.70
2023-02-05T06:12:31.265Z,-3.60
2023-02-05T06:17:35.333Z,-3.70
2023-02-05T06:22:37.987Z,-3.80
2023-02-05T06:27:40.641Z,-3.80
2023-02-05T06:32:44.596Z,-3.80
2023-02-05T06:37:47.939Z,-3.70
2023-02-05T06:42:50.636Z,-3.80
2023-02-05T06:47:56.062Z,-3.90
2023-02-05T06:52:58.735Z,-4.00
2023-02-05T06:58:01.455Z,-3.90
2023-02-05T07:03:05.653Z,-3.80
2023-02-05T07:08:08.373Z,-3.70
2023-02-05T07:13:11.091Z,-3.50
2023-02-05T07:18:15.306Z,-3.60
2023-02-05T07:23:17.912Z,-3.10
2023-02-05T07:28:20.560Z,-2.10
2023-02-05T07:33:24.589Z,-0.60
2023-02-05T07:38:27.372Z,0.70
2023-02-05T07:43:30.049Z,3.70
2023-02-05T07:48:34.725Z,6.20
2023-02-05T07:53:37.671Z,6.70
2023-02-05T07:58:40.406Z,6.50
2023-02-05T08:03:44.611Z,2.70
2023-02-05T08:08:47.377Z,2.50
2023-02-05T08:13:50.142Z,2.10
2023-02-05T08:18:54.178Z,1.00
2023-02-05T08:23:58.502Z,0.20
2023-02-05T08:29:01.176Z,0.30
2023-02-05T08:34:05.536Z,0.60
2023-02-05T08:39:08.484Z,1.00
2023-02-05T08:44:11.217Z,1.10
2023-02-05T08:49:16.844Z,1.80
2023-02-05T08:54:19.669Z,1.90
2023-02-05T08:59:22.792Z,2.40
2023-02-05T09:04:26.841Z,2.20
2023-02-05T09:09:30.601Z,2.10
2023-02-05T09:14:36.257Z,1.50
2023-02-05T09:19:42.214Z,1.30
2023-02-05T09:24:44.928Z,1.30
2023-02-05T09:29:47.636Z,1.50
2023-02-05T09:34:51.609Z,1.50
2023-02-05T09:45:41.435Z,1.50
2023-02-05T09:50:45.639Z,2.20
2023-02-05T09:55:49.001Z,2.60
2023-02-05T10:00:56.113Z,2.90
2023-02-05T10:06:25.474Z,3.60
2023-02-05T10:11:35.163Z,4.90
2023-02-05T10:16:56.861Z,5.50
2023-02-05T10:22:11.876Z,5.20
2023-02-05T10:27:20.290Z,5.50
2023-02-05T10:32:24.407Z,5.30
2023-02-05T10:37:37.728Z,5.10
2023-02-05T10:42:45.099Z,5.80
2023-02-05T10:48:04.578Z,5.70
2023-02-05T10:53:08.661Z,5.10
2023-02-05T10:58:36.486Z,5.40
2023-02-05T11:03:40.706Z,4.90
2023-02-05T11:08:45.322Z,4.90
2023-02-05T11:13:52.414Z,5.50
2023-02-05T11:19:01.790Z,5.40
2023-02-05T11:24:06.213Z,5.50
2023-02-05T11:29:20.445Z,6.00
2023-02-05T11:34:23.322Z,6.20
2023-02-05T11:39:35.913Z,5.60
2023-02-05T11:44:48.380Z,5.10
2023-02-05T11:49:52.151Z,5.80
2023-02-05T11:54:56.368Z,6.30
2023-02-05T12:00:01.009Z,6.20
2023-02-05T12:05:18.168Z,7.30
2023-02-05T12:10:29.634Z,7.90
2023-02-05T12:15:37.947Z,8.80
2023-02-05T12:20:46.063Z,10.10
2023-02-05T12:26:01.689Z,10.40
2023-02-05T12:31:16.635Z,9.60
2023-02-05T12:36:38.968Z,8.90
2023-02-05T12:41:56.650Z,9.10
2023-02-05T12:47:09.882Z,10.00
2023-02-05T12:52:22.607Z,9.10
2023-02-05T12:57:31.521Z,8.20
2023-02-05T13:02:39.718Z,7.30
2023-02-05T13:07:46.362Z,7.10
2023-02-05T13:12:53.949Z,7.00
2023-02-05T13:18:01.750Z,6.70
2023-02-05T13:23:22.238Z,6.10
2023-02-05T13:28:43.577Z,6.20
2023-02-05T13:33:46.675Z,6.80
2023-02-05T13:39:14.185Z,6.80
2023-02-05T13:45:14.879Z,6.90
2023-02-05T13:50:40.732Z,6.60
2023-02-05T13:56:21.969Z,7.10
2023-02-05T14:01:35.309Z,7.10
2023-02-05T14:06:44.158Z,7.50
2023-02-05T14:11:55.955Z,7.70
2023-02-05T14:18:02.893Z,6.90
2023-02-05T14:23:17.206Z,6.70
2023-02-05T14:28:41.414Z,6.90
2023-02-05T14:33:45.899Z,6.40
2023-02-05T14:39:03.617Z,6.90
2023-02-05T14:44:20.179Z,7.60
2023-02-05T14:49:32.190Z,8.00
2023-02-05T14:55:00.367Z,7.70
2023-02-05T15:00:07.168Z,6.90
2023-02-05T15:05:20.601Z,5.60
2023-02-05T15:10:35.198Z,4.80
2023-02-05T15:15:47.921Z,4.30
2023-02-05T15:20:57.982Z,3.90
2023-02-05T15:26:05.457Z,3.60
2023-02-05T15:31:22.630Z,3.30
2023-02-05T15:36:35.039Z,3.10
2023-02-05T15:41:40.233Z,2.80
2023-02-05T15:46:43.684Z,2.70
2023-02-05T15:51:48.876Z,2.50
2023-02-05T15:56:54.897Z,2.30
2023-02-05T16:02:03.951Z,2.10
2023-02-05T16:07:25.681Z,1.80
2023-02-05T16:12:39.429Z,1.70
2023-02-05T16:17:47.873Z,1.60
2023-02-05T16:22:57.109Z,1.40
2023-02-05T16:28:10.113Z,1.10
2023-02-05T16:33:29.307Z,1.00
2023-02-05T16:38:34.942Z,1.10
2023-02-05T16:43:44.453Z,0.90
2023-02-05T16:49:14.728Z,0.60
2023-02-05T16:54:40.152Z,0.30
2023-02-05T16:59:53.258Z,0.40
2023-02-05T17:05:04.268Z,0.20
2023-02-05T17:10:21.233Z,-0.20
2023-02-05T17:15:36.860Z,-0.30
2023-02-05T17:20:39.577Z,-0.20
2023-02-05T17:25:51.622Z,-0.30
2023-02-05T17:30:57.637Z,-0.30
2023-02-05T17:36:00.392Z,-0.40
2023-02-05T17:41:33.601Z,-0.60
2023-02-05T17:46:36.275Z,-0.80
2023-02-05T17:51:42.276Z,-0.70
2023-02-05T17:56:48.348Z,-0.90
2023-02-05T18:01:52.295Z,-0.80
2023-02-05T18:06:55.055Z,-0.70
2023-02-05T18:11:59.108Z,-0.80
2023-02-05T18:17:01.786Z,-0.90
2023-02-05T18:22:10.357Z,-1.00
2023-02-05T18:27:14.405Z,-1.40
2023-02-05T18:32:20.569Z,-1.90
2023-02-05T18:37:25.081Z,-2.20
2023-02-05T18:42:36.789Z,-2.30
2023-02-05T18:47:41.617Z,-2.10
2023-02-05T18:53:01.440Z,-2.20
2023-02-05T18:58:06.625Z,-2.30
2023-02-05T19:03:12.341Z,-2.20
2023-02-05T19:08:22.186Z,-1.90
2023-02-05T19:13:34.399Z,-2.10
2023-02-05T19:18:38.364Z,-2.30
2023-02-05T19:23:41.417Z,-2.30
2023-02-05T19:28:47.526Z,-2.40
2023-02-05T19:34:01.079Z,-2.30
2023-02-05T19:39:05.823Z,-2.40
2023-02-05T19:44:21.171Z,-2.60
2023-02-05T19:49:24.967Z,-2.70
2023-02-05T19:54:31.801Z,-2.90
2023-02-05T19:59:35.801Z,-3.00
2023-02-05T20:04:41.649Z,-3.10
2023-02-05T20:09:44.819Z,-3.30
2023-02-05T20:14:49.004Z,-3.40
2023-02-05T20:19:55.156Z,-3.20
2023-02-05T20:24:59.999Z,-2.90
2023-02-05T20:30:22.001Z,-2.80
2023-02-05T20:35:24.882Z,-2.90
2023-02-05T20:40:27.626Z,-3.10
2023-02-05T20:45:33.754Z,-3.10
2023-02-05T20:50:36.924Z,-3.00
2023-02-05T20:55:39.703Z,-3.20
2023-02-05T21:00:43.713Z,-3.10
2023-02-05T21:05:46.463Z,-3.00
2023-02-05T21:10:49.131Z,-3.10
2023-02-05T21:15:58.193Z,-3.20
2023-02-05T21:21:07.684Z,-3.50
2023-02-05T21:26:19.292Z,-3.70
2023-02-05T21:31:24.679Z,-3.90
2023-02-05T21:36:28.907Z,-4.10
2023-02-05T21:41:32.014Z,-4.20
2023-02-05T21:46:36.018Z,-4.20
2023-02-05T21:51:38.669Z,-4.40
2023-02-05T21:56:43.835Z,-4.40
2023-02-05T22:01:47.837Z,-4.40
2023-02-05T22:06:51.276Z,-4.30
2023-02-05T22:11:54.445Z,-4.10
2023-02-05T22:16:58.460Z,-3.70
2023-02-05T22:22:01.154Z,-3.70
2023-02-05T22:27:03.799Z,-3.80
2023-02-05T22:32:07.889Z,-3.60
2023-02-05T22:37:10.566Z,-3.40
2023-02-05T22:42:13.210Z,-3.50
2023-02-05T22:47:17.201Z,-3.50
2023-02-05T22:52:19.859Z,-3.50
2023-02-05T22:57:22.537Z,-3.70
2023-02-05T23:02:26.623Z,-3.90
2023-02-05T23:07:29.469Z,-4.10
2023-02-05T23:12:32.091Z,-4.00
2023-02-05T23:17:37.836Z,-4.10
2023-02-05T23:22:40.636Z,-3.90
2023-02-05T23:27:43.311Z,-3.80
2023-02-05T23:32:47.389Z,-4.20
2023-02-05T23:37:50.066Z,-4.40
2023-02-05T23:42:52.801Z,-4.70
2023-02-05T23:47:57.386Z,-4.80
2023-02-05T23:53:00.087Z,-4.70
2023-02-05T23:58:03.154Z,-4.40
